createdAt,value
2022-08-28T00:18:26.695Z,-55
2022-08-28T00:48:35.079Z,-55
2022-08-28T01:18:46.048Z,-54
2022-08-28T01:48:49.945Z,-55
2022-08-28T02:18:57.011Z,-54
2022-08-28T02:49:02.047Z,-55
2022-08-28T03:19:10.669Z,-53
2022-08-28T03:49:19.433Z,-52
2022-08-28T04:19:22.539Z,-51
2022-08-28T04:49:25.561Z,-52
2022-08-28T05:19:33.291Z,-51
2022-08-28T05:49:39.269Z,-52
2022-08-28T06:19:45.300Z,-53
2022-08-28T06:49:52.005Z,-55
2022-08-28T07:20:00.435Z,-56
2022-08-28T07:50:06.374Z,-55
2022-08-28T08:20:16.033Z,-54
2022-08-28T08:50:16.591Z,-54
2022-08-28T09:20:23.084Z,-55
2022-08-28T09:50:29.677Z,-58
2022-08-28T10:20:41.415Z,-57
2022-08-28T10:50:46.615Z,-57
2022-08-28T11:20:49.319Z,-58
2022-08-28T11:50:51.757Z,-58
2022-08-28T12:21:01.591Z,-59
2022-08-28T12:51:07.158Z,-60
2022-08-28T13:21:08.354Z,-61
2022-08-28T13:51:11.968Z,-61
2022-08-28T14:21:16.131Z,-60
2022-08-28T14:51:28.556Z,-60
2022-08-28T15:21:37.219Z,-59
2022-08-28T15:51:39.096Z,-59
2022-08-28T16:21:50.096Z,-60
2022-08-28T16:51:59.870Z,-58
2022-08-28T17:22:06.663Z,-57
2022-08-28T17:52:07.343Z,-58
2022-08-28T18:22:16.935Z,-56
2022-08-28T18:52:23.806Z,-56
2022-08-28T19:22:29.729Z,-57
2022-08-28T19:52:38.279Z,-55
2022-08-28T20:22:47.988Z,-58
2022-08-28T20:52:56.141Z,-57
2022-08-28T21:23:06.382Z,-56
2022-08-28T21:53:15.733Z,-55
2022-08-28T22:23:23.688Z,-52
2022-08-28T22:53:30.588Z,-52
2022-08-28T23:23:34.020Z,-54
2022-08-28T23:53:35.763Z,-55
